sensor_id;sensor_type;location;lat;lon;timestamp;P1;durP1;ratioP1;P2;durP2;ratioP2
73747;SDS011;62056;52.130;5.428;2023-05-23T00:02:14;9.30;;;6.00;;
73747;SDS011;62056;52.130;5.428;2023-05-23T00:04:41;11.23;;;5.60;;
73747;SDS011;62056;52.130;5.428;2023-05-23T00:07:09;10.48;;;5.97;;
73747;SDS011;62056;52.130;5.428;2023-05-23T00:09:36;13.05;;;5.50;;
73747;SDS011;62056;52.130;5.428;2023-05-23T00:12:03;15.82;;;6.25;;
73747;SDS011;62056;52.130;5.428;2023-05-23T00:14:30;7.53;;;5.03;;
73747;SDS011;62056;52.130;5.428;2023-05-23T00:16:59;10.95;;;6.35;;
73747;SDS011;62056;52.130;5.428;2023-05-23T00:19:29;11.98;;;5.93;;
73747;SDS011;62056;52.130;5.428;2023-05-23T00:21:55;10.02;;;5.70;;
73747;SDS011;62056;52.130;5.428;2023-05-23T00:24:23;11.80;;;6.72;;
73747;SDS011;62056;52.130;5.428;2023-05-23T00:26:50;11.85;;;6.07;;
73747;SDS011;62056;52.130;5.428;2023-05-23T00:29:17;12.77;;;5.85;;
73747;SDS011;62056;52.130;5.428;2023-05-23T00:31:44;11.30;;;7.30;;
73747;SDS011;62056;52.130;5.428;2023-05-23T00:34:14;10.70;;;5.85;;
73747;SDS011;62056;52.130;5.428;2023-05-23T00:36:43;11.38;;;5.85;;
73747;SDS011;62056;52.130;5.428;2023-05-23T00:39:13;11.07;;;5.43;;
73747;SDS011;62056;52.130;5.428;2023-05-23T00:41:45;7.90;;;5.35;;
73747;SDS011;62056;52.130;5.428;2023-05-23T00:44:17;9.90;;;6.25;;
73747;SDS011;62056;52.130;5.428;2023-05-23T00:46:46;7.60;;;5.35;;
73747;SDS011;62056;52.130;5.428;2023-05-23T00:49:17;8.63;;;4.95;;
73747;SDS011;62056;52.130;5.428;2023-05-23T00:51:46;13.10;;;5.60;;
73747;SDS011;62056;52.130;5.428;2023-05-23T00:54:24;6.55;;;4.95;;
73747;SDS011;62056;52.130;5.428;2023-05-23T00:56:54;9.88;;;5.22;;
73747;SDS011;62056;52.130;5.428;2023-05-23T00:59:23;8.13;;;5.07;;
73747;SDS011;62056;52.130;5.428;2023-05-23T01:01:51;7.15;;;4.63;;
73747;SDS011;62056;52.130;5.428;2023-05-23T01:04:19;8.03;;;4.03;;
73747;SDS011;62056;52.130;5.428;2023-05-23T01:06:46;8.68;;;4.35;;
73747;SDS011;62056;52.130;5.428;2023-05-23T01:09:14;7.70;;;3.92;;
73747;SDS011;62056;52.130;5.428;2023-05-23T01:11:51;7.18;;;4.57;;
73747;SDS011;62056;52.130;5.428;2023-05-23T01:14:29;7.20;;;4.45;;
73747;SDS011;62056;52.130;5.428;2023-05-23T01:17:06;5.03;;;4.30;;
73747;SDS011;62056;52.130;5.428;2023-05-23T01:19:50;7.25;;;4.43;;
73747;SDS011;62056;52.130;5.428;2023-05-23T01:25:22;5.57;;;4.30;;
73747;SDS011;62056;52.130;5.428;2023-05-23T01:27:59;6.53;;;3.40;;
73747;SDS011;62056;52.130;5.428;2023-05-23T01:30:29;8.07;;;4.73;;
73747;SDS011;62056;52.130;5.428;2023-05-23T01:32:58;8.05;;;4.45;;
73747;SDS011;62056;52.130;5.428;2023-05-23T01:35:27;7.25;;;4.65;;
73747;SDS011;62056;52.130;5.428;2023-05-23T01:37:54;7.95;;;3.90;;
73747;SDS011;62056;52.130;5.428;2023-05-23T01:40:22;6.53;;;4.95;;
73747;SDS011;62056;52.130;5.428;2023-05-23T01:42:50;5.30;;;3.80;;
73747;SDS011;62056;52.130;5.428;2023-05-23T01:45:18;6.28;;;4.57;;
73747;SDS011;62056;52.130;5.428;2023-05-23T01:47:47;6.38;;;4.25;;
73747;SDS011;62056;52.130;5.428;2023-05-23T01:50:16;6.43;;;4.47;;
73747;SDS011;62056;52.130;5.428;2023-05-23T01:52:44;5.18;;;3.80;;
73747;SDS011;62056;52.130;5.428;2023-05-23T01:55:13;5.80;;;3.90;;
73747;SDS011;62056;52.130;5.428;2023-05-23T01:57:44;5.15;;;4.25;;
73747;SDS011;62056;52.130;5.428;2023-05-23T02:00:15;6.15;;;4.75;;
73747;SDS011;62056;52.130;5.428;2023-05-23T02:02:42;6.43;;;4.57;;
73747;SDS011;62056;52.130;5.428;2023-05-23T02:05:09;14.70;;;5.70;;
73747;SDS011;62056;52.130;5.428;2023-05-23T02:07:36;17.47;;;4.87;;
73747;SDS011;62056;52.130;5.428;2023-05-23T02:10:03;10.45;;;4.70;;
73747;SDS011;62056;52.130;5.428;2023-05-23T02:12:33;11.25;;;4.93;;
73747;SDS011;62056;52.130;5.428;2023-05-23T02:15:00;7.57;;;4.80;;
73747;SDS011;62056;52.130;5.428;2023-05-23T02:17:26;5.82;;;3.45;;
73747;SDS011;62056;52.130;5.428;2023-05-23T02:19:54;7.93;;;4.37;;
73747;SDS011;62056;52.130;5.428;2023-05-23T02:22:22;7.20;;;4.35;;
73747;SDS011;62056;52.130;5.428;2023-05-23T02:24:50;5.95;;;4.80;;
73747;SDS011;62056;52.130;5.428;2023-05-23T02:27:18;9.57;;;4.65;;
73747;SDS011;62056;52.130;5.428;2023-05-23T02:29:45;12.50;;;4.25;;
73747;SDS011;62056;52.130;5.428;2023-05-23T02:32:12;10.53;;;3.80;;
73747;SDS011;62056;52.130;5.428;2023-05-23T02:34:39;7.75;;;4.72;;
73747;SDS011;62056;52.130;5.428;2023-05-23T02:37:06;15.23;;;4.68;;
73747;SDS011;62056;52.130;5.428;2023-05-23T02:39:34;11.52;;;4.35;;
73747;SDS011;62056;52.130;5.428;2023-05-23T02:42:02;9.23;;;4.05;;
73747;SDS011;62056;52.130;5.428;2023-05-23T02:44:30;6.83;;;3.53;;
73747;SDS011;62056;52.130;5.428;2023-05-23T02:46:57;7.82;;;4.28;;
73747;SDS011;62056;52.130;5.428;2023-05-23T02:49:23;12.45;;;5.07;;
73747;SDS011;62056;52.130;5.428;2023-05-23T02:51:51;9.50;;;4.35;;
73747;SDS011;62056;52.130;5.428;2023-05-23T02:54:17;8.90;;;4.03;;
73747;SDS011;62056;52.130;5.428;2023-05-23T02:56:44;11.27;;;3.80;;
73747;SDS011;62056;52.130;5.428;2023-05-23T02:59:11;5.65;;;3.60;;
73747;SDS011;62056;52.130;5.428;2023-05-23T03:01:39;8.32;;;4.22;;
73747;SDS011;62056;52.130;5.428;2023-05-23T03:04:05;8.98;;;4.28;;
73747;SDS011;62056;52.130;5.428;2023-05-23T03:06:32;7.68;;;4.05;;
73747;SDS011;62056;52.130;5.428;2023-05-23T03:09:01;9.57;;;4.57;;
73747;SDS011;62056;52.130;5.428;2023-05-23T03:11:29;10.98;;;4.90;;
73747;SDS011;62056;52.130;5.428;2023-05-23T03:13:55;11.13;;;4.10;;
73747;SDS011;62056;52.130;5.428;2023-05-23T03:16:22;14.95;;;5.05;;
73747;SDS011;62056;52.130;5.428;2023-05-23T03:18:49;13.48;;;5.20;;
73747;SDS011;62056;52.130;5.428;2023-05-23T03:21:16;9.07;;;4.37;;
73747;SDS011;62056;52.130;5.428;2023-05-23T03:23:43;10.23;;;4.72;;
73747;SDS011;62056;52.130;5.428;2023-05-23T03:26:10;11.77;;;4.82;;
73747;SDS011;62056;52.130;5.428;2023-05-23T03:28:37;7.65;;;3.60;;
73747;SDS011;62056;52.130;5.428;2023-05-23T03:34:34;11.80;;;4.30;;
73747;SDS011;62056;52.130;5.428;2023-05-23T03:37:01;9.23;;;4.95;;
73747;SDS011;62056;52.130;5.428;2023-05-23T03:39:28;13.32;;;5.03;;
73747;SDS011;62056;52.130;5.428;2023-05-23T03:41:55;15.63;;;5.10;;
73747;SDS011;62056;52.130;5.428;2023-05-23T03:44:22;15.23;;;5.07;;
73747;SDS011;62056;52.130;5.428;2023-05-23T03:46:49;11.37;;;4.50;;
73747;SDS011;62056;52.130;5.428;2023-05-23T03:49:15;14.05;;;5.95;;
73747;SDS011;62056;52.130;5.428;2023-05-23T03:51:42;15.82;;;5.40;;
73747;SDS011;62056;52.130;5.428;2023-05-23T03:54:09;18.35;;;5.88;;
73747;SDS011;62056;52.130;5.428;2023-05-23T03:56:36;19.50;;;5.78;;
73747;SDS011;62056;52.130;5.428;2023-05-23T03:59:02;16.07;;;5.87;;
73747;SDS011;62056;52.130;5.428;2023-05-23T04:01:29;12.52;;;5.30;;
73747;SDS011;62056;52.130;5.428;2023-05-23T04:03:56;13.88;;;5.25;;
73747;SDS011;62056;52.130;5.428;2023-05-23T04:06:23;14.63;;;5.75;;
73747;SDS011;62056;52.130;5.428;2023-05-23T04:08:49;10.20;;;4.65;;
73747;SDS011;62056;52.130;5.428;2023-05-23T04:11:16;9.23;;;3.97;;
73747;SDS011;62056;52.130;5.428;2023-05-23T04:13:43;17.23;;;4.47;;
73747;SDS011;62056;52.130;5.428;2023-05-23T04:16:12;26.48;;;5.60;;
73747;SDS011;62056;52.130;5.428;2023-05-23T04:18:39;20.23;;;6.20;;
73747;SDS011;62056;52.130;5.428;2023-05-23T04:21:06;13.13;;;4.85;;
73747;SDS011;62056;52.130;5.428;2023-05-23T04:23:32;15.27;;;5.20;;
73747;SDS011;62056;52.130;5.428;2023-05-23T04:25:59;17.67;;;5.80;;
73747;SDS011;62056;52.130;5.428;2023-05-23T04:28:26;11.60;;;3.88;;
73747;SDS011;62056;52.130;5.428;2023-05-23T04:30:53;13.77;;;3.90;;
73747;SDS011;62056;52.130;5.428;2023-05-23T04:33:20;13.57;;;4.18;;
73747;SDS011;62056;52.130;5.428;2023-05-23T04:35:46;10.73;;;3.73;;
73747;SDS011;62056;52.130;5.428;2023-05-23T04:38:14;13.70;;;3.97;;
73747;SDS011;62056;52.130;5.428;2023-05-23T04:40:41;12.13;;;3.75;;
73747;SDS011;62056;52.130;5.428;2023-05-23T04:43:08;19.27;;;2.88;;
73747;SDS011;62056;52.130;5.428;2023-05-23T04:45:35;9.35;;;2.92;;
73747;SDS011;62056;52.130;5.428;2023-05-23T04:48:02;9.20;;;2.77;;
73747;SDS011;62056;52.130;5.428;2023-05-23T04:50:29;6.47;;;2.85;;
73747;SDS011;62056;52.130;5.428;2023-05-23T04:52:58;10.18;;;2.97;;
73747;SDS011;62056;52.130;5.428;2023-05-23T04:55:25;9.10;;;3.40;;
73747;SDS011;62056;52.130;5.428;2023-05-23T04:57:51;11.95;;;2.65;;
73747;SDS011;62056;52.130;5.428;2023-05-23T05:00:18;10.63;;;3.03;;
73747;SDS011;62056;52.130;5.428;2023-05-23T05:02:45;4.90;;;2.70;;
73747;SDS011;62056;52.130;5.428;2023-05-23T05:05:12;9.95;;;4.10;;
73747;SDS011;62056;52.130;5.428;2023-05-23T05:07:38;13.70;;;3.25;;
73747;SDS011;62056;52.130;5.428;2023-05-23T05:10:05;9.75;;;2.63;;
73747;SDS011;62056;52.130;5.428;2023-05-23T05:12:32;7.83;;;2.47;;
73747;SDS011;62056;52.130;5.428;2023-05-23T05:15:01;11.43;;;2.63;;
73747;SDS011;62056;52.130;5.428;2023-05-23T05:17:28;9.20;;;2.30;;
73747;SDS011;62056;52.130;5.428;2023-05-23T05:19:55;6.13;;;2.78;;
73747;SDS011;62056;52.130;5.428;2023-05-23T05:22:22;9.63;;;2.92;;
73747;SDS011;62056;52.130;5.428;2023-05-23T05:24:49;6.00;;;2.67;;
73747;SDS011;62056;52.130;5.428;2023-05-23T05:27:16;12.55;;;3.58;;
73747;SDS011;62056;52.130;5.428;2023-05-23T05:29:42;6.13;;;2.40;;
73747;SDS011;62056;52.130;5.428;2023-05-23T05:32:09;10.55;;;3.20;;
73747;SDS011;62056;52.130;5.428;2023-05-23T05:35:03;10.80;;;2.80;;
73747;SDS011;62056;52.130;5.428;2023-05-23T05:37:58;7.13;;;2.70;;
73747;SDS011;62056;52.130;5.428;2023-05-23T05:40:25;8.45;;;2.97;;
73747;SDS011;62056;52.130;5.428;2023-05-23T05:42:52;9.63;;;2.70;;
73747;SDS011;62056;52.130;5.428;2023-05-23T05:45:19;6.05;;;2.40;;
73747;SDS011;62056;52.130;5.428;2023-05-23T05:47:46;5.95;;;2.40;;
73747;SDS011;62056;52.130;5.428;2023-05-23T05:50:13;6.63;;;3.50;;
73747;SDS011;62056;52.130;5.428;2023-05-23T05:52:39;7.78;;;3.28;;
73747;SDS011;62056;52.130;5.428;2023-05-23T05:55:08;6.72;;;3.63;;
73747;SDS011;62056;52.130;5.428;2023-05-23T05:57:39;16.33;;;3.20;;
73747;SDS011;62056;52.130;5.428;2023-05-23T06:00:07;9.73;;;2.80;;
73747;SDS011;62056;52.130;5.428;2023-05-23T06:02:39;12.07;;;3.33;;
73747;SDS011;62056;52.130;5.428;2023-05-23T06:05:07;8.13;;;2.72;;
73747;SDS011;62056;52.130;5.428;2023-05-23T06:07:37;8.00;;;3.05;;
73747;SDS011;62056;52.130;5.428;2023-05-23T06:10:05;10.27;;;3.53;;
73747;SDS011;62056;52.130;5.428;2023-05-23T06:12:32;11.93;;;3.00;;
73747;SDS011;62056;52.130;5.428;2023-05-23T06:14:59;9.13;;;3.97;;
73747;SDS011;62056;52.130;5.428;2023-05-23T06:17:26;7.35;;;3.38;;
73747;SDS011;62056;52.130;5.428;2023-05-23T06:19:53;8.48;;;3.47;;
73747;SDS011;62056;52.130;5.428;2023-05-23T06:22:20;5.90;;;2.83;;
73747;SDS011;62056;52.130;5.428;2023-05-23T06:24:47;6.70;;;2.92;;
73747;SDS011;62056;52.130;5.428;2023-05-23T06:27:13;12.43;;;3.80;;
73747;SDS011;62056;52.130;5.428;2023-05-23T06:29:40;11.27;;;3.40;;
73747;SDS011;62056;52.130;5.428;2023-05-23T06:32:07;10.15;;;4.03;;
73747;SDS011;62056;52.130;5.428;2023-05-23T06:34:33;12.80;;;4.00;;
73747;SDS011;62056;52.130;5.428;2023-05-23T06:37:00;15.52;;;4.60;;
73747;SDS011;62056;52.130;5.428;2023-05-23T06:39:27;8.57;;;3.50;;
73747;SDS011;62056;52.130;5.428;2023-05-23T06:41:53;8.55;;;3.08;;
73747;SDS011;62056;52.130;5.428;2023-05-23T06:44:21;6.60;;;3.15;;
73747;SDS011;62056;52.130;5.428;2023-05-23T06:46:48;7.63;;;3.35;;
73747;SDS011;62056;52.130;5.428;2023-05-23T06:49:14;7.63;;;3.55;;
73747;SDS011;62056;52.130;5.428;2023-05-23T06:51:41;10.43;;;3.57;;
73747;SDS011;62056;52.130;5.428;2023-05-23T06:54:08;14.18;;;3.30;;
73747;SDS011;62056;52.130;5.428;2023-05-23T06:56:34;7.72;;;2.78;;
73747;SDS011;62056;52.130;5.428;2023-05-23T06:59:01;4.85;;;2.72;;
73747;SDS011;62056;52.130;5.428;2023-05-23T07:01:28;8.63;;;3.70;;
73747;SDS011;62056;52.130;5.428;2023-05-23T07:03:54;6.40;;;2.20;;
73747;SDS011;62056;52.130;5.428;2023-05-23T07:06:21;8.65;;;2.47;;
73747;SDS011;62056;52.130;5.428;2023-05-23T07:08:48;6.20;;;2.08;;
73747;SDS011;62056;52.130;5.428;2023-05-23T07:11:15;5.65;;;2.08;;
73747;SDS011;62056;52.130;5.428;2023-05-23T07:13:41;4.55;;;1.55;;
73747;SDS011;62056;52.130;5.428;2023-05-23T07:16:08;7.50;;;2.03;;
73747;SDS011;62056;52.130;5.428;2023-05-23T07:18:35;9.35;;;2.10;;
73747;SDS011;62056;52.130;5.428;2023-05-23T07:21:04;9.82;;;1.77;;
73747;SDS011;62056;52.130;5.428;2023-05-23T07:23:58;10.70;;;1.85;;
73747;SDS011;62056;52.130;5.428;2023-05-23T07:26:25;7.13;;;1.65;;
73747;SDS011;62056;52.130;5.428;2023-05-23T07:28:52;4.23;;;1.67;;
73747;SDS011;62056;52.130;5.428;2023-05-23T07:31:19;10.07;;;1.50;;
73747;SDS011;62056;52.130;5.428;2023-05-23T07:33:46;11.95;;;1.55;;
73747;SDS011;62056;52.130;5.428;2023-05-23T07:36:13;5.63;;;1.35;;
73747;SDS011;62056;52.130;5.428;2023-05-23T07:38:40;11.65;;;1.80;;
73747;SDS011;62056;52.130;5.428;2023-05-23T07:41:06;9.03;;;1.43;;
73747;SDS011;62056;52.130;5.428;2023-05-23T07:43:37;7.43;;;1.30;;
73747;SDS011;62056;52.130;5.428;2023-05-23T07:46:05;8.75;;;1.55;;
73747;SDS011;62056;52.130;5.428;2023-05-23T07:48:32;7.85;;;1.40;;
73747;SDS011;62056;52.130;5.428;2023-05-23T07:50:58;10.18;;;2.17;;
73747;SDS011;62056;52.130;5.428;2023-05-23T07:53:53;7.40;;;1.58;;
73747;SDS011;62056;52.130;5.428;2023-05-23T07:56:19;12.32;;;1.98;;
73747;SDS011;62056;52.130;5.428;2023-05-23T07:58:46;10.77;;;3.30;;
73747;SDS011;62056;52.130;5.428;2023-05-23T08:01:13;5.85;;;1.17;;
73747;SDS011;62056;52.130;5.428;2023-05-23T08:04:07;10.13;;;2.05;;
73747;SDS011;62056;52.130;5.428;2023-05-23T08:07:03;5.78;;;1.70;;
73747;SDS011;62056;52.130;5.428;2023-05-23T08:09:51;6.85;;;1.48;;
73747;SDS011;62056;52.130;5.428;2023-05-23T08:12:18;5.65;;;1.45;;
73747;SDS011;62056;52.130;5.428;2023-05-23T08:14:45;8.20;;;1.45;;
73747;SDS011;62056;52.130;5.428;2023-05-23T08:17:19;10.90;;;1.88;;
73747;SDS011;62056;52.130;5.428;2023-05-23T08:19:49;12.68;;;1.98;;
73747;SDS011;62056;52.130;5.428;2023-05-23T08:22:16;10.68;;;1.33;;
73747;SDS011;62056;52.130;5.428;2023-05-23T08:24:42;8.13;;;1.40;;
73747;SDS011;62056;52.130;5.428;2023-05-23T08:27:09;6.03;;;1.45;;
73747;SDS011;62056;52.130;5.428;2023-05-23T08:29:36;9.10;;;1.60;;
73747;SDS011;62056;52.130;5.428;2023-05-23T08:32:04;7.63;;;1.80;;
73747;SDS011;62056;52.130;5.428;2023-05-23T08:34:35;11.70;;;1.92;;
73747;SDS011;62056;52.130;5.428;2023-05-23T08:37:02;9.60;;;1.80;;
73747;SDS011;62056;52.130;5.428;2023-05-23T08:39:29;12.02;;;1.38;;
73747;SDS011;62056;52.130;5.428;2023-05-23T08:41:55;9.02;;;2.22;;
73747;SDS011;62056;52.130;5.428;2023-05-23T08:44:22;10.88;;;1.45;;
73747;SDS011;62056;52.130;5.428;2023-05-23T08:46:49;7.75;;;1.42;;
73747;SDS011;62056;52.130;5.428;2023-05-23T08:49:18;12.02;;;2.40;;
73747;SDS011;62056;52.130;5.428;2023-05-23T08:51:45;9.30;;;1.95;;
73747;SDS011;62056;52.130;5.428;2023-05-23T08:54:13;5.55;;;1.45;;
73747;SDS011;62056;52.130;5.428;2023-05-23T08:56:42;7.77;;;1.80;;
73747;SDS011;62056;52.130;5.428;2023-05-23T08:59:10;10.18;;;1.75;;
73747;SDS011;62056;52.130;5.428;2023-05-23T09:01:39;9.70;;;2.95;;
73747;SDS011;62056;52.130;5.428;2023-05-23T09:04:08;10.25;;;1.92;;
73747;SDS011;62056;52.130;5.428;2023-05-23T09:06:35;9.50;;;1.30;;
73747;SDS011;62056;52.130;5.428;2023-05-23T09:09:02;9.93;;;1.90;;
73747;SDS011;62056;52.130;5.428;2023-05-23T09:11:29;12.48;;;2.35;;
73747;SDS011;62056;52.130;5.428;2023-05-23T09:14:01;14.07;;;2.15;;
73747;SDS011;62056;52.130;5.428;2023-05-23T09:16:33;6.90;;;1.63;;
73747;SDS011;62056;52.130;5.428;2023-05-23T09:19:08;9.07;;;1.88;;
73747;SDS011;62056;52.130;5.428;2023-05-23T09:21:36;7.82;;;3.08;;
73747;SDS011;62056;52.130;5.428;2023-05-23T09:24:03;7.40;;;1.90;;
73747;SDS011;62056;52.130;5.428;2023-05-23T09:26:30;8.88;;;2.05;;
73747;SDS011;62056;52.130;5.428;2023-05-23T09:28:57;8.57;;;2.05;;
73747;SDS011;62056;52.130;5.428;2023-05-23T09:31:27;5.18;;;1.73;;
73747;SDS011;62056;52.130;5.428;2023-05-23T09:33:57;5.03;;;1.17;;
73747;SDS011;62056;52.130;5.428;2023-05-23T09:36:26;7.60;;;1.42;;
73747;SDS011;62056;52.130;5.428;2023-05-23T09:39:01;9.45;;;2.25;;
73747;SDS011;62056;52.130;5.428;2023-05-23T09:41:34;6.20;;;1.70;;
73747;SDS011;62056;52.130;5.428;2023-05-23T09:44:04;8.45;;;1.88;;
73747;SDS011;62056;52.130;5.428;2023-05-23T09:46:36;11.67;;;1.80;;
73747;SDS011;62056;52.130;5.428;2023-05-23T09:49:13;9.82;;;1.73;;
73747;SDS011;62056;52.130;5.428;2023-05-23T09:51:42;11.20;;;1.92;;
73747;SDS011;62056;52.130;5.428;2023-05-23T09:54:09;4.32;;;1.73;;
73747;SDS011;62056;52.130;5.428;2023-05-23T09:56:36;8.32;;;2.42;;
73747;SDS011;62056;52.130;5.428;2023-05-23T09:59:08;6.03;;;1.83;;
73747;SDS011;62056;52.130;5.428;2023-05-23T10:01:40;12.80;;;2.88;;
73747;SDS011;62056;52.130;5.428;2023-05-23T10:04:10;10.50;;;2.17;;
73747;SDS011;62056;52.130;5.428;2023-05-23T10:06:40;5.65;;;1.88;;
73747;SDS011;62056;52.130;5.428;2023-05-23T10:09:12;9.00;;;1.77;;
73747;SDS011;62056;52.130;5.428;2023-05-23T10:14:50;5.80;;;1.90;;
73747;SDS011;62056;52.130;5.428;2023-05-23T10:17:21;3.95;;;1.42;;
73747;SDS011;62056;52.130;5.428;2023-05-23T10:20:04;5.25;;;1.55;;
73747;SDS011;62056;52.130;5.428;2023-05-23T10:22:35;7.30;;;1.30;;
73747;SDS011;62056;52.130;5.428;2023-05-23T10:25:03;9.57;;;2.35;;
73747;SDS011;62056;52.130;5.428;2023-05-23T10:27:33;9.73;;;2.00;;
73747;SDS011;62056;52.130;5.428;2023-05-23T10:30:03;13.65;;;2.95;;
73747;SDS011;62056;52.130;5.428;2023-05-23T10:32:32;5.95;;;1.17;;
73747;SDS011;62056;52.130;5.428;2023-05-23T10:35:09;11.10;;;2.00;;
73747;SDS011;62056;52.130;5.428;2023-05-23T10:40:51;9.70;;;1.65;;
73747;SDS011;62056;52.130;5.428;2023-05-23T10:43:30;8.73;;;1.42;;
73747;SDS011;62056;52.130;5.428;2023-05-23T10:46:08;9.40;;;1.95;;
73747;SDS011;62056;52.130;5.428;2023-05-23T10:48:41;10.73;;;1.58;;
73747;SDS011;62056;52.130;5.428;2023-05-23T10:51:13;5.27;;;1.67;;
73747;SDS011;62056;52.130;5.428;2023-05-23T10:53:41;5.80;;;1.77;;
73747;SDS011;62056;52.130;5.428;2023-05-23T10:56:13;9.27;;;1.88;;
73747;SDS011;62056;52.130;5.428;2023-05-23T10:58:54;8.32;;;1.90;;
73747;SDS011;62056;52.130;5.428;2023-05-23T11:01:23;11.93;;;1.77;;
73747;SDS011;62056;52.130;5.428;2023-05-23T11:04:23;10.27;;;1.75;;
73747;SDS011;62056;52.130;5.428;2023-05-23T11:06:53;9.75;;;2.67;;
73747;SDS011;62056;52.130;5.428;2023-05-23T11:09:21;10.35;;;2.03;;
73747;SDS011;62056;52.130;5.428;2023-05-23T11:12:06;7.85;;;2.17;;
73747;SDS011;62056;52.130;5.428;2023-05-23T11:17:16;7.00;;;1.27;;
73747;SDS011;62056;52.130;5.428;2023-05-23T11:22:28;6.50;;;1.42;;
73747;SDS011;62056;52.130;5.428;2023-05-23T11:24:56;8.73;;;2.40;;
73747;SDS011;62056;52.130;5.428;2023-05-23T11:27:28;3.42;;;1.20;;
73747;SDS011;62056;52.130;5.428;2023-05-23T11:29:58;4.22;;;1.20;;
73747;SDS011;62056;52.130;5.428;2023-05-23T11:32:27;6.40;;;1.52;;
73747;SDS011;62056;52.130;5.428;2023-05-23T11:34:59;9.10;;;1.63;;
73747;SDS011;62056;52.130;5.428;2023-05-23T11:37:28;9.30;;;1.55;;
73747;SDS011;62056;52.130;5.428;2023-05-23T11:39:56;5.15;;;1.40;;
73747;SDS011;62056;52.130;5.428;2023-05-23T11:42:23;3.38;;;1.15;;
73747;SDS011;62056;52.130;5.428;2023-05-23T11:44:51;4.85;;;1.30;;
73747;SDS011;62056;52.130;5.428;2023-05-23T11:47:18;9.20;;;1.20;;
73747;SDS011;62056;52.130;5.428;2023-05-23T11:49:45;2.83;;;0.93;;
73747;SDS011;62056;52.130;5.428;2023-05-23T11:52:13;3.83;;;1.48;;
73747;SDS011;62056;52.130;5.428;2023-05-23T11:54:40;5.90;;;1.80;;
73747;SDS011;62056;52.130;5.428;2023-05-23T11:57:12;6.88;;;1.80;;
73747;SDS011;62056;52.130;5.428;2023-05-23T11:59:39;4.35;;;1.55;;
73747;SDS011;62056;52.130;5.428;2023-05-23T12:02:06;5.80;;;1.70;;
73747;SDS011;62056;52.130;5.428;2023-05-23T12:04:34;4.32;;;1.58;;
73747;SDS011;62056;52.130;5.428;2023-05-23T12:07:04;10.15;;;1.58;;
73747;SDS011;62056;52.130;5.428;2023-05-23T12:09:40;7.78;;;1.48;;
73747;SDS011;62056;52.130;5.428;2023-05-23T12:12:08;3.92;;;1.23;;
73747;SDS011;62056;52.130;5.428;2023-05-23T12:14:34;3.58;;;0.85;;
73747;SDS011;62056;52.130;5.428;2023-05-23T12:17:04;4.95;;;1.10;;
73747;SDS011;62056;52.130;5.428;2023-05-23T12:19:31;3.92;;;0.90;;
73747;SDS011;62056;52.130;5.428;2023-05-23T12:22:04;9.75;;;1.27;;
73747;SDS011;62056;52.130;5.428;2023-05-23T12:24:32;3.30;;;1.20;;
73747;SDS011;62056;52.130;5.428;2023-05-23T12:27:00;5.93;;;1.60;;
73747;SDS011;62056;52.130;5.428;2023-05-23T12:29:29;5.85;;;1.25;;
73747;SDS011;62056;52.130;5.428;2023-05-23T12:32:01;6.72;;;1.65;;
73747;SDS011;62056;52.130;5.428;2023-05-23T12:34:29;9.63;;;1.63;;
73747;SDS011;62056;52.130;5.428;2023-05-23T12:36:56;6.60;;;1.30;;
73747;SDS011;62056;52.130;5.428;2023-05-23T12:39:43;5.10;;;1.35;;
73747;SDS011;62056;52.130;5.428;2023-05-23T12:42:10;6.63;;;1.65;;
73747;SDS011;62056;52.130;5.428;2023-05-23T12:44:39;5.15;;;1.23;;
73747;SDS011;62056;52.130;5.428;2023-05-23T12:47:07;6.50;;;1.60;;
73747;SDS011;62056;52.130;5.428;2023-05-23T12:49:36;4.22;;;1.27;;
73747;SDS011;62056;52.130;5.428;2023-05-23T12:52:03;4.25;;;0.95;;
73747;SDS011;62056;52.130;5.428;2023-05-23T12:54:30;6.38;;;1.73;;
73747;SDS011;62056;52.130;5.428;2023-05-23T12:56:57;6.78;;;1.70;;
73747;SDS011;62056;52.130;5.428;2023-05-23T12:59:23;5.78;;;1.20;;
73747;SDS011;62056;52.130;5.428;2023-05-23T13:01:51;6.05;;;1.60;;
73747;SDS011;62056;52.130;5.428;2023-05-23T13:04:18;7.82;;;1.98;;
73747;SDS011;62056;52.130;5.428;2023-05-23T13:06:45;5.95;;;1.77;;
73747;SDS011;62056;52.130;5.428;2023-05-23T13:09:11;6.88;;;1.25;;
73747;SDS011;62056;52.130;5.428;2023-05-23T13:11:38;5.85;;;1.70;;
73747;SDS011;62056;52.130;5.428;2023-05-23T13:14:06;5.00;;;1.48;;
73747;SDS011;62056;52.130;5.428;2023-05-23T13:16:33;4.70;;;1.08;;
73747;SDS011;62056;52.130;5.428;2023-05-23T13:19:01;4.43;;;1.00;;
73747;SDS011;62056;52.130;5.428;2023-05-23T13:21:28;6.53;;;1.55;;
73747;SDS011;62056;52.130;5.428;2023-05-23T13:23:55;11.18;;;2.08;;
73747;SDS011;62056;52.130;5.428;2023-05-23T13:26:21;7.97;;;1.45;;
73747;SDS011;62056;52.130;5.428;2023-05-23T13:32:28;6.78;;;1.30;;
73747;SDS011;62056;52.130;5.428;2023-05-23T13:34:55;7.47;;;1.73;;
73747;SDS011;62056;52.130;5.428;2023-05-23T13:37:21;4.90;;;1.88;;
73747;SDS011;62056;52.130;5.428;2023-05-23T13:39:48;5.65;;;1.88;;
73747;SDS011;62056;52.130;5.428;2023-05-23T13:42:15;6.82;;;1.40;;
73747;SDS011;62056;52.130;5.428;2023-05-23T13:44:42;8.45;;;1.48;;
73747;SDS011;62056;52.130;5.428;2023-05-23T13:47:09;2.95;;;1.23;;
73747;SDS011;62056;52.130;5.428;2023-05-23T13:49:38;5.10;;;1.77;;
73747;SDS011;62056;52.130;5.428;2023-05-23T13:52:06;7.25;;;1.80;;
73747;SDS011;62056;52.130;5.428;2023-05-23T13:54:33;12.00;;;1.20;;
73747;SDS011;62056;52.130;5.428;2023-05-23T13:56:59;4.82;;;0.95;;
73747;SDS011;62056;52.130;5.428;2023-05-23T13:59:27;4.30;;;1.23;;
73747;SDS011;62056;52.130;5.428;2023-05-23T14:01:53;5.55;;;1.23;;
73747;SDS011;62056;52.130;5.428;2023-05-23T14:04:20;4.35;;;1.27;;
73747;SDS011;62056;52.130;5.428;2023-05-23T14:06:48;3.53;;;1.20;;
73747;SDS011;62056;52.130;5.428;2023-05-23T14:09:16;4.68;;;0.88;;
73747;SDS011;62056;52.130;5.428;2023-05-23T14:11:43;7.38;;;1.00;;
73747;SDS011;62056;52.130;5.428;2023-05-23T14:14:10;6.30;;;0.90;;
73747;SDS011;62056;52.130;5.428;2023-05-23T14:16:37;4.13;;;0.88;;
73747;SDS011;62056;52.130;5.428;2023-05-23T14:19:03;6.50;;;1.90;;
73747;SDS011;62056;52.130;5.428;2023-05-23T14:21:32;5.22;;;0.90;;
73747;SDS011;62056;52.130;5.428;2023-05-23T14:23:59;7.72;;;1.52;;
73747;SDS011;62056;52.130;5.428;2023-05-23T14:26:25;8.48;;;1.27;;
73747;SDS011;62056;52.130;5.428;2023-05-23T14:28:52;4.43;;;1.33;;
73747;SDS011;62056;52.130;5.428;2023-05-23T14:31:19;10.80;;;2.10;;
73747;SDS011;62056;52.130;5.428;2023-05-23T14:33:47;7.82;;;1.15;;
73747;SDS011;62056;52.130;5.428;2023-05-23T14:36:15;3.45;;;1.05;;
73747;SDS011;62056;52.130;5.428;2023-05-23T14:38:42;7.60;;;1.50;;
73747;SDS011;62056;52.130;5.428;2023-05-23T14:41:15;10.10;;;1.00;;
73747;SDS011;62056;52.130;5.428;2023-05-23T14:43:41;5.93;;;1.20;;
73747;SDS011;62056;52.130;5.428;2023-05-23T14:46:08;5.68;;;1.40;;
73747;SDS011;62056;52.130;5.428;2023-05-23T14:48:35;7.68;;;2.38;;
73747;SDS011;62056;52.130;5.428;2023-05-23T14:51:01;7.20;;;1.30;;
73747;SDS011;62056;52.130;5.428;2023-05-23T14:53:29;5.30;;;1.10;;
73747;SDS011;62056;52.130;5.428;2023-05-23T14:55:56;3.65;;;1.48;;
73747;SDS011;62056;52.130;5.428;2023-05-23T14:58:50;4.43;;;0.88;;
73747;SDS011;62056;52.130;5.428;2023-05-23T15:01:17;6.65;;;1.23;;
73747;SDS011;62056;52.130;5.428;2023-05-23T15:03:44;6.30;;;1.15;;
73747;SDS011;62056;52.130;5.428;2023-05-23T15:06:11;8.43;;;1.30;;
73747;SDS011;62056;52.130;5.428;2023-05-23T15:08:38;6.53;;;1.33;;
73747;SDS011;62056;52.130;5.428;2023-05-23T15:11:05;5.57;;;1.10;;
73747;SDS011;62056;52.130;5.428;2023-05-23T15:13:31;2.60;;;0.77;;
73747;SDS011;62056;52.130;5.428;2023-05-23T15:15:58;8.10;;;1.45;;